sensor_id;sensor_type;location;lat;lon;timestamp;pressure;altitude;pressure_sealevel;temperature;humidity
49393;BME280;35268;42.642;23.308;2023-02-23T00:00:11;93770.31;;;7.63;54.04
49393;BME280;35268;42.642;23.308;2023-02-23T00:02:47;93775.44;;;7.59;54.18
49393;BME280;35268;42.642;23.308;2023-02-23T00:05:13;93769.16;;;7.55;54.20
49393;BME280;35268;42.642;23.308;2023-02-23T00:07:41;93777.22;;;7.50;54.35
49393;BME280;35268;42.642;23.308;2023-02-23T00:10:12;93773.56;;;7.46;54.71
49393;BME280;35268;42.642;23.308;2023-02-23T00:12:40;93772.78;;;7.46;54.89
49393;BME280;35268;42.642;23.308;2023-02-23T00:15:07;93769.75;;;7.38;55.15
49393;BME280;35268;42.642;23.308;2023-02-23T00:17:34;93769.75;;;7.38;55.17
49393;BME280;35268;42.642;23.308;2023-02-23T00:20:03;93777.31;;;7.31;55.46
49393;BME280;35268;42.642;23.308;2023-02-23T00:22:32;93783.69;;;7.30;55.72
49393;BME280;35268;42.642;23.308;2023-02-23T00:24:58;93781.63;;;7.27;55.69
49393;BME280;35268;42.642;23.308;2023-02-23T00:27:24;93777.22;;;7.22;56.08
49393;BME280;35268;42.642;23.308;2023-02-23T00:29:49;93785.47;;;7.21;56.19
49393;BME280;35268;42.642;23.308;2023-02-23T00:32:15;93779.66;;;7.19;56.39
49393;BME280;35268;42.642;23.308;2023-02-23T00:34:44;93788.47;;;7.14;56.58
49393;BME280;35268;42.642;23.308;2023-02-23T00:37:13;93782.19;;;7.10;56.66
49393;BME280;35268;42.642;23.308;2023-02-23T00:39:39;93782.69;;;7.12;56.92
49393;BME280;35268;42.642;23.308;2023-02-23T00:42:04;93787.47;;;7.10;56.71
49393;BME280;35268;42.642;23.308;2023-02-23T00:44:31;93779.63;;;7.05;57.02
49393;BME280;35268;42.642;23.308;2023-02-23T00:46:58;93776.00;;;7.01;57.20
49393;BME280;35268;42.642;23.308;2023-02-23T00:49:24;93775.22;;;7.00;57.34
49393;BME280;35268;42.642;23.308;2023-02-23T00:51:49;93775.50;;;6.99;57.28
49393;BME280;35268;42.642;23.308;2023-02-23T00:54:17;93768.94;;;6.96;57.39
49393;BME280;35268;42.642;23.308;2023-02-23T00:56:43;93776.06;;;6.96;57.50
49393;BME280;35268;42.642;23.308;2023-02-23T00:59:09;93781.69;;;6.94;57.43
49393;BME280;35268;42.642;23.308;2023-02-23T01:01:34;93764.31;;;6.88;57.65
49393;BME280;35268;42.642;23.308;2023-02-23T01:04:01;93771.28;;;6.84;57.90
49393;BME280;35268;42.642;23.308;2023-02-23T01:06:27;93761.84;;;6.78;57.84
49393;BME280;35268;42.642;23.308;2023-02-23T01:08:53;93773.50;;;6.77;58.29
49393;BME280;35268;42.642;23.308;2023-02-23T01:11:26;93773.22;;;6.78;58.33
49393;BME280;35268;42.642;23.308;2023-02-23T01:13:53;93779.88;;;6.76;58.28
49393;BME280;35268;42.642;23.308;2023-02-23T01:16:22;93775.16;;;6.73;58.22
49393;BME280;35268;42.642;23.308;2023-02-23T01:18:50;93779.94;;;6.71;58.45
49393;BME280;35268;42.642;23.308;2023-02-23T01:21:19;93771.00;;;6.67;58.65
49393;BME280;35268;42.642;23.308;2023-02-23T01:23:45;93780.06;;;6.66;58.86
49393;BME280;35268;42.642;23.308;2023-02-23T01:26:32;93780.63;;;6.62;59.02
49393;BME280;35268;42.642;23.308;2023-02-23T01:29:00;93776.69;;;6.60;59.13
49393;BME280;35268;42.642;23.308;2023-02-23T01:31:28;93773.25;;;6.59;59.13
49393;BME280;35268;42.642;23.308;2023-02-23T01:33:55;93775.69;;;6.56;59.32
49393;BME280;35268;42.642;23.308;2023-02-23T01:36:21;93780.72;;;6.57;59.46
49393;BME280;35268;42.642;23.308;2023-02-23T01:38:47;93778.63;;;6.54;59.27
49393;BME280;35268;42.642;23.308;2023-02-23T01:41:14;93774.13;;;6.55;59.17
49393;BME280;35268;42.642;23.308;2023-02-23T01:44:02;93771.75;;;6.53;59.23
49393;BME280;35268;42.642;23.308;2023-02-23T01:46:36;93774.00;;;6.46;59.73
49393;BME280;35268;42.642;23.308;2023-02-23T01:49:07;93771.91;;;6.43;60.06
49393;BME280;35268;42.642;23.308;2023-02-23T01:51:39;93771.13;;;6.42;60.05
49393;BME280;35268;42.642;23.308;2023-02-23T01:54:13;93767.97;;;6.40;60.01
49393;BME280;35268;42.642;23.308;2023-02-23T01:56:42;93773.28;;;6.40;60.20
49393;BME280;35268;42.642;23.308;2023-02-23T01:59:11;93774.06;;;6.41;60.29
49393;BME280;35268;42.642;23.308;2023-02-23T02:01:39;93767.69;;;6.42;60.36
49393;BME280;35268;42.642;23.308;2023-02-23T02:04:07;93758.16;;;6.41;60.39
49393;BME280;35268;42.642;23.308;2023-02-23T02:06:34;93751.31;;;6.40;60.54
49393;BME280;35268;42.642;23.308;2023-02-23T02:09:06;93761.81;;;6.45;60.45
49393;BME280;35268;42.642;23.308;2023-02-23T02:11:35;93755.47;;;6.46;60.28
49393;BME280;35268;42.642;23.308;2023-02-23T02:14:17;93753.31;;;6.48;60.07
49393;BME280;35268;42.642;23.308;2023-02-23T02:27:58;93754.38;;;6.47;60.01
49393;BME280;35268;42.642;23.308;2023-02-23T02:30:55;93757.00;;;6.47;60.16
49393;BME280;35268;42.642;23.308;2023-02-23T02:38:52;93767.97;;;6.40;60.10
49393;BME280;35268;42.642;23.308;2023-02-23T02:41:39;93766.13;;;6.41;60.17
49393;BME280;35268;42.642;23.308;2023-02-23T02:44:16;93763.47;;;6.41;59.97
49393;BME280;35268;42.642;23.308;2023-02-23T02:46:46;93760.91;;;6.36;60.26
49393;BME280;35268;42.642;23.308;2023-02-23T02:51:49;93756.19;;;6.33;60.27
49393;BME280;35268;42.642;23.308;2023-02-23T02:54:34;93758.81;;;6.33;60.25
49393;BME280;35268;42.642;23.308;2023-02-23T02:57:06;93757.34;;;6.27;60.42
49393;BME280;35268;42.642;23.308;2023-02-23T02:59:44;93760.06;;;6.21;60.58
49393;BME280;35268;42.642;23.308;2023-02-23T03:02:32;93757.16;;;6.23;60.56
49393;BME280;35268;42.642;23.308;2023-02-23T03:05:19;93758.28;;;6.17;60.87
49393;BME280;35268;42.642;23.308;2023-02-23T03:11:12;93753.34;;;6.10;60.98
49393;BME280;35268;42.642;23.308;2023-02-23T03:19:47;93768.88;;;5.98;61.58
49393;BME280;35268;42.642;23.308;2023-02-23T03:25:48;93769.16;;;5.96;61.94
49393;BME280;35268;42.642;23.308;2023-02-23T03:28:55;93767.59;;;5.95;61.93
49393;BME280;35268;42.642;23.308;2023-02-23T03:31:58;93773.44;;;5.92;61.97
49393;BME280;35268;42.642;23.308;2023-02-23T03:34:52;93771.34;;;5.89;62.11
49393;BME280;35268;42.642;23.308;2023-02-23T03:37:44;93774.53;;;5.86;62.31
49393;BME280;35268;42.642;23.308;2023-02-23T03:40:35;93775.13;;;5.83;62.40
49393;BME280;35268;42.642;23.308;2023-02-23T03:43:24;93784.63;;;5.84;62.36
49393;BME280;35268;42.642;23.308;2023-02-23T03:46:11;93773.25;;;5.83;62.54
49393;BME280;35268;42.642;23.308;2023-02-23T03:48:59;93781.97;;;5.84;62.52
49393;BME280;35268;42.642;23.308;2023-02-23T03:51:49;93783.34;;;5.81;62.91
49393;BME280;35268;42.642;23.308;2023-02-23T03:55:13;93790.53;;;5.76;63.45
49393;BME280;35268;42.642;23.308;2023-02-23T03:58:01;93793.91;;;5.62;63.74
49393;BME280;35268;42.642;23.308;2023-02-23T04:00:49;93790.53;;;5.57;64.13
49393;BME280;35268;42.642;23.308;2023-02-23T04:03:36;93793.94;;;5.57;64.21
49393;BME280;35268;42.642;23.308;2023-02-23T04:06:24;93794.28;;;5.51;64.45
49393;BME280;35268;42.642;23.308;2023-02-23T04:09:09;93792.75;;;5.50;64.29
49393;BME280;35268;42.642;23.308;2023-02-23T04:11:57;93790.91;;;5.45;64.43
49393;BME280;35268;42.642;23.308;2023-02-23T04:17:24;93785.97;;;5.38;64.92
49393;BME280;35268;42.642;23.308;2023-02-23T04:19:52;93784.97;;;5.34;64.84
49393;BME280;35268;42.642;23.308;2023-02-23T04:22:19;93785.97;;;5.38;64.99
49393;BME280;35268;42.642;23.308;2023-02-23T04:24:44;93781.03;;;5.32;65.01
49393;BME280;35268;42.642;23.308;2023-02-23T04:27:11;93777.88;;;5.30;64.94
49393;BME280;35268;42.642;23.308;2023-02-23T04:29:36;93785.09;;;5.24;65.42
49393;BME280;35268;42.642;23.308;2023-02-23T04:32:02;93786.94;;;5.23;65.32
49393;BME280;35268;42.642;23.308;2023-02-23T04:34:27;93787.72;;;5.24;65.14
49393;BME280;35268;42.642;23.308;2023-02-23T04:36:53;93780.34;;;5.21;65.02
49393;BME280;35268;42.642;23.308;2023-02-23T04:39:18;93781.44;;;5.20;65.03
49393;BME280;35268;42.642;23.308;2023-02-23T04:41:43;93789.34;;;5.20;64.94
49393;BME280;35268;42.642;23.308;2023-02-23T04:44:10;93786.72;;;5.20;64.90
49393;BME280;35268;42.642;23.308;2023-02-23T04:46:35;93783.84;;;5.16;64.70
49393;BME280;35268;42.642;23.308;2023-02-23T04:49:00;93787.84;;;5.14;64.80
49393;BME280;35268;42.642;23.308;2023-02-23T04:51:26;93785.69;;;5.16;64.76
49393;BME280;35268;42.642;23.308;2023-02-23T04:53:56;93788.59;;;5.14;64.71
49393;BME280;35268;42.642;23.308;2023-02-23T04:56:22;93787.06;;;5.13;64.76
49393;BME280;35268;42.642;23.308;2023-02-23T04:58:47;93788.34;;;5.16;65.19
49393;BME280;35268;42.642;23.308;2023-02-23T05:01:12;93785.97;;;5.14;65.23
49393;BME280;35268;42.642;23.308;2023-02-23T05:03:38;93786.53;;;5.11;65.21
49393;BME280;35268;42.642;23.308;2023-02-23T05:06:03;93789.19;;;5.11;65.61
49393;BME280;35268;42.642;23.308;2023-02-23T05:08:29;93788.09;;;5.12;65.10
49393;BME280;35268;42.642;23.308;2023-02-23T05:10:55;93791.81;;;5.11;65.20
49393;BME280;35268;42.642;23.308;2023-02-23T05:13:20;93791.25;;;5.14;65.34
49393;BME280;35268;42.642;23.308;2023-02-23T05:15:46;93785.72;;;5.11;65.30
49393;BME280;35268;42.642;23.308;2023-02-23T05:18:11;93788.88;;;5.13;65.70
49393;BME280;35268;42.642;23.308;2023-02-23T05:20:37;93787.06;;;5.13;65.71
49393;BME280;35268;42.642;23.308;2023-02-23T05:23:02;93792.34;;;5.13;65.85
49393;BME280;35268;42.642;23.308;2023-02-23T05:25:28;93797.88;;;5.12;65.65
49393;BME280;35268;42.642;23.308;2023-02-23T05:27:53;93797.38;;;5.10;65.44
49393;BME280;35268;42.642;23.308;2023-02-23T05:30:19;93796.88;;;5.08;65.53
49393;BME280;35268;42.642;23.308;2023-02-23T05:32:44;93802.94;;;5.08;65.38
49393;BME280;35268;42.642;23.308;2023-02-23T05:35:10;93815.66;;;5.06;65.29
49393;BME280;35268;42.642;23.308;2023-02-23T05:37:36;93810.13;;;5.02;65.44
49393;BME280;35268;42.642;23.308;2023-02-23T05:40:02;93813.28;;;5.05;65.49
49393;BME280;35268;42.642;23.308;2023-02-23T05:42:27;93816.22;;;5.03;65.67
49393;BME280;35268;42.642;23.308;2023-02-23T05:44:52;93815.91;;;5.05;65.68
49393;BME280;35268;42.642;23.308;2023-02-23T05:47:18;93817.00;;;5.03;65.70
49393;BME280;35268;42.642;23.308;2023-02-23T05:49:44;93819.06;;;5.07;65.92
49393;BME280;35268;42.642;23.308;2023-02-23T05:52:10;93824.13;;;5.03;65.95
49393;BME280;35268;42.642;23.308;2023-02-23T05:54:35;93818.84;;;5.03;66.04
49393;BME280;35268;42.642;23.308;2023-02-23T05:57:01;93831.75;;;5.05;65.94
49393;BME280;35268;42.642;23.308;2023-02-23T05:59:26;93837.56;;;5.07;65.84
49393;BME280;35268;42.642;23.308;2023-02-23T06:01:51;93833.88;;;5.08;65.93
49393;BME280;35268;42.642;23.308;2023-02-23T06:04:17;93836.94;;;5.15;66.08
49393;BME280;35268;42.642;23.308;2023-02-23T06:06:43;93839.56;;;5.20;66.24
49393;BME280;35268;42.642;23.308;2023-02-23T06:09:09;93843.72;;;5.26;66.16
49393;BME280;35268;42.642;23.308;2023-02-23T06:11:34;93841.31;;;5.30;66.06
49393;BME280;35268;42.642;23.308;2023-02-23T06:14:00;93854.47;;;5.35;65.83
49393;BME280;35268;42.642;23.308;2023-02-23T06:16:26;93845.47;;;5.36;65.80
49393;BME280;35268;42.642;23.308;2023-02-23T06:18:52;93843.28;;;5.43;65.84
49393;BME280;35268;42.642;23.308;2023-02-23T06:21:17;93853.31;;;5.46;65.84
49393;BME280;35268;42.642;23.308;2023-02-23T06:23:43;93852.47;;;5.51;65.89
49393;BME280;35268;42.642;23.308;2023-02-23T06:26:09;93853.47;;;5.55;65.86
49393;BME280;35268;42.642;23.308;2023-02-23T06:28:35;93858.75;;;5.55;65.77
49393;BME280;35268;42.642;23.308;2023-02-23T06:31:00;93860.34;;;5.56;66.06
49393;BME280;35268;42.642;23.308;2023-02-23T06:33:26;93859.78;;;5.59;66.20
49393;BME280;35268;42.642;23.308;2023-02-23T06:35:51;93868.22;;;5.61;66.28
49393;BME280;35268;42.642;23.308;2023-02-23T06:38:17;93867.44;;;5.60;66.16
49393;BME280;35268;42.642;23.308;2023-02-23T06:40:43;93862.66;;;5.62;66.39
49393;BME280;35268;42.642;23.308;2023-02-23T06:43:08;93866.84;;;5.63;66.37
49393;BME280;35268;42.642;23.308;2023-02-23T06:45:34;93865.53;;;5.66;66.71
49393;BME280;35268;42.642;23.308;2023-02-23T06:47:59;93865.97;;;5.73;67.10
49393;BME280;35268;42.642;23.308;2023-02-23T06:50:25;93864.03;;;5.79;67.07
49393;BME280;35268;42.642;23.308;2023-02-23T06:52:51;93870.00;;;5.90;66.77
49393;BME280;35268;42.642;23.308;2023-02-23T06:55:16;93865.72;;;5.94;66.67
49393;BME280;35268;42.642;23.308;2023-02-23T06:57:42;93866.19;;;6.01;66.98
49393;BME280;35268;42.642;23.308;2023-02-23T07:00:09;93869.00;;;6.10;67.14
49393;BME280;35268;42.642;23.308;2023-02-23T07:02:35;93864.94;;;6.17;67.09
49393;BME280;35268;42.642;23.308;2023-02-23T07:05:02;93870.94;;;6.23;66.83
49393;BME280;35268;42.642;23.308;2023-02-23T07:07:28;93871.66;;;6.29;66.64
49393;BME280;35268;42.642;23.308;2023-02-23T07:09:53;93873.16;;;6.35;65.56
49393;BME280;35268;42.642;23.308;2023-02-23T07:12:19;93867.31;;;6.38;64.64
49393;BME280;35268;42.642;23.308;2023-02-23T07:14:45;93872.09;;;6.36;64.71
49393;BME280;35268;42.642;23.308;2023-02-23T07:17:11;93868.81;;;6.44;64.25
49393;BME280;35268;42.642;23.308;2023-02-23T07:19:36;93880.63;;;6.52;63.92
49393;BME280;35268;42.642;23.308;2023-02-23T07:22:02;93876.31;;;6.56;62.94
49393;BME280;35268;42.642;23.308;2023-02-23T07:24:29;93876.25;;;6.61;62.20
49393;BME280;35268;42.642;23.308;2023-02-23T07:26:54;93875.41;;;6.66;62.02
49393;BME280;35268;42.642;23.308;2023-02-23T07:29:21;93873.94;;;6.73;62.53
49393;BME280;35268;42.642;23.308;2023-02-23T07:31:48;93868.00;;;6.81;61.33
49393;BME280;35268;42.642;23.308;2023-02-23T07:34:14;93861.84;;;6.86;61.11
49393;BME280;35268;42.642;23.308;2023-02-23T07:36:40;93868.91;;;6.91;60.54
49393;BME280;35268;42.642;23.308;2023-02-23T07:39:05;93868.53;;;6.97;60.36
49393;BME280;35268;42.642;23.308;2023-02-23T07:41:31;93867.09;;;7.05;59.95
49393;BME280;35268;42.642;23.308;2023-02-23T07:43:59;93858.75;;;7.12;59.67
49393;BME280;35268;42.642;23.308;2023-02-23T07:46:25;93858.09;;;7.20;59.18
49393;BME280;35268;42.642;23.308;2023-02-23T07:48:51;93858.50;;;7.27;59.19
49393;BME280;35268;42.642;23.308;2023-02-23T07:51:16;93862.38;;;7.35;58.91
49393;BME280;35268;42.642;23.308;2023-02-23T07:53:43;93862.47;;;7.43;58.78
49393;BME280;35268;42.642;23.308;2023-02-23T07:56:09;93856.78;;;7.50;59.04
49393;BME280;35268;42.642;23.308;2023-02-23T07:58:36;93853.44;;;7.58;58.69
49393;BME280;35268;42.642;23.308;2023-02-23T08:01:03;93850.31;;;7.70;58.46
49393;BME280;35268;42.642;23.308;2023-02-23T08:03:29;93857.88;;;7.77;57.91
49393;BME280;35268;42.642;23.308;2023-02-23T08:05:54;93852.47;;;7.82;58.00
49393;BME280;35268;42.642;23.308;2023-02-23T08:08:20;93863.78;;;7.88;57.89
49393;BME280;35268;42.642;23.308;2023-02-23T08:10:46;93854.31;;;7.95;57.24
49393;BME280;35268;42.642;23.308;2023-02-23T08:13:13;93849.69;;;8.01;57.17
49393;BME280;35268;42.642;23.308;2023-02-23T08:15:38;93848.16;;;8.00;57.49
49393;BME280;35268;42.642;23.308;2023-02-23T08:18:04;93846.34;;;8.09;57.30
49393;BME280;35268;42.642;23.308;2023-02-23T08:20:29;93850.75;;;8.14;57.06
49393;BME280;35268;42.642;23.308;2023-02-23T08:22:56;93849.78;;;8.23;56.68
49393;BME280;35268;42.642;23.308;2023-02-23T08:25:22;93847.50;;;8.31;56.33
49393;BME280;35268;42.642;23.308;2023-02-23T08:27:48;93858.50;;;8.38;56.33
49393;BME280;35268;42.642;23.308;2023-02-23T08:30:17;93863.03;;;8.51;55.73
49393;BME280;35268;42.642;23.308;2023-02-23T08:32:43;93859.66;;;8.59;55.51
49393;BME280;35268;42.642;23.308;2023-02-23T08:35:12;93855.59;;;8.62;55.54
49393;BME280;35268;42.642;23.308;2023-02-23T08:37:38;93854.88;;;8.70;55.11
49393;BME280;35268;42.642;23.308;2023-02-23T08:40:04;93858.91;;;8.81;54.70
49393;BME280;35268;42.642;23.308;2023-02-23T08:42:30;93856.28;;;8.90;54.64
49393;BME280;35268;42.642;23.308;2023-02-23T08:44:55;93854.34;;;9.04;54.26
49393;BME280;35268;42.642;23.308;2023-02-23T08:47:21;93854.53;;;9.08;53.92
49393;BME280;35268;42.642;23.308;2023-02-23T08:49:49;93842.06;;;9.17;53.72
49393;BME280;35268;42.642;23.308;2023-02-23T08:52:14;93842.63;;;9.28;53.81
49393;BME280;35268;42.642;23.308;2023-02-23T08:54:40;93845.97;;;9.42;52.86
49393;BME280;35268;42.642;23.308;2023-02-23T08:57:05;93854.38;;;9.36;53.33
49393;BME280;35268;42.642;23.308;2023-02-23T08:59:31;93853.34;;;9.46;52.66
49393;BME280;35268;42.642;23.308;2023-02-23T09:01:56;93837.09;;;9.56;52.18
49393;BME280;35268;42.642;23.308;2023-02-23T09:04:22;93844.81;;;9.66;52.08
49393;BME280;35268;42.642;23.308;2023-02-23T09:06:48;93851.44;;;9.77;51.68
49393;BME280;35268;42.642;23.308;2023-02-23T09:09:15;93847.56;;;9.83;51.64
49393;BME280;35268;42.642;23.308;2023-02-23T09:11:41;93846.34;;;9.98;51.17
49393;BME280;35268;42.642;23.308;2023-02-23T09:14:06;93846.53;;;10.11;51.30
49393;BME280;35268;42.642;23.308;2023-02-23T09:16:33;93847.03;;;10.21;51.00
49393;BME280;35268;42.642;23.308;2023-02-23T09:19:00;93846.59;;;10.28;50.58
49393;BME280;35268;42.642;23.308;2023-02-23T09:21:26;93840.19;;;10.38;50.14
49393;BME280;35268;42.642;23.308;2023-02-23T09:23:54;93843.81;;;10.51;50.20
49393;BME280;35268;42.642;23.308;2023-02-23T09:26:21;93849.00;;;10.64;49.75
49393;BME280;35268;42.642;23.308;2023-02-23T09:28:47;93840.53;;;10.80;49.13
49393;BME280;35268;42.642;23.308;2023-02-23T09:31:15;93841.94;;;10.86;48.44
49393;BME280;35268;42.642;23.308;2023-02-23T09:33:43;93842.72;;;10.95;48.38
49393;BME280;35268;42.642;23.308;2023-02-23T09:36:14;93847.72;;;11.06;48.33
49393;BME280;35268;42.642;23.308;2023-02-23T09:38:44;93848.34;;;11.20;48.32
49393;BME280;35268;42.642;23.308;2023-02-23T09:43:59;93847.31;;;11.51;47.48
49393;BME280;35268;42.642;23.308;2023-02-23T09:49:01;93844.78;;;11.63;46.04
49393;BME280;35268;42.642;23.308;2023-02-23T09:51:29;93847.09;;;11.73;46.19
49393;BME280;35268;42.642;23.308;2023-02-23T09:53:58;93843.44;;;11.87;45.21
49393;BME280;35268;42.642;23.308;2023-02-23T09:56:32;93836.84;;;11.93;45.14
49393;BME280;35268;42.642;23.308;2023-02-23T09:59:00;93833.97;;;11.98;44.61
49393;BME280;35268;42.642;23.308;2023-02-23T10:04:03;93832.16;;;12.11;45.53
49393;BME280;35268;42.642;23.308;2023-02-23T10:06:32;93834.84;;;12.11;44.45
49393;BME280;35268;42.642;23.308;2023-02-23T10:11:51;93830.63;;;12.31;43.64
49393;BME280;35268;42.642;23.308;2023-02-23T10:14:53;93835.34;;;12.34;43.98
49393;BME280;35268;42.642;23.308;2023-02-23T10:17:43;93829.41;;;12.49;43.86
49393;BME280;35268;42.642;23.308;2023-02-23T10:20:38;93827.09;;;12.69;44.06
49393;BME280;35268;42.642;23.308;2023-02-23T10:23:11;93816.00;;;12.79;43.44
49393;BME280;35268;42.642;23.308;2023-02-23T10:25:43;93812.25;;;12.92;43.29
49393;BME280;35268;42.642;23.308;2023-02-23T10:28:20;93816.53;;;13.05;43.15
49393;BME280;35268;42.642;23.308;2023-02-23T10:30:47;93817.44;;;13.10;42.13
49393;BME280;35268;42.642;23.308;2023-02-23T10:35:43;93810.28;;;13.35;41.56
49393;BME280;35268;42.642;23.308;2023-02-23T10:38:16;93795.72;;;13.44;41.33
49393;BME280;35268;42.642;23.308;2023-02-23T10:40:45;93808.22;;;13.53;41.14
49393;BME280;35268;42.642;23.308;2023-02-23T10:43:13;93796.19;;;13.59;41.22
49393;BME280;35268;42.642;23.308;2023-02-23T10:45:47;93793.28;;;13.64;40.46
49393;BME280;35268;42.642;23.308;2023-02-23T10:48:20;93797.31;;;13.70;40.56
49393;BME280;35268;42.642;23.308;2023-02-23T10:50:49;93789.81;;;13.76;39.93
49393;BME280;35268;42.642;23.308;2023-02-23T10:53:24;93795.75;;;13.81;40.23
49393;BME280;35268;42.642;23.308;2023-02-23T10:56:08;93789.16;;;13.91;40.84
49393;BME280;35268;42.642;23.308;2023-02-23T11:01:13;93774.75;;;13.96;39.69
49393;BME280;35268;42.642;23.308;2023-02-23T11:03:47;93768.28;;;14.09;39.60
49393;BME280;35268;42.642;23.308;2023-02-23T11:06:36;93776.31;;;14.21;39.52
49393;BME280;35268;42.642;23.308;2023-02-23T11:09:25;93765.09;;;14.44;38.87
49393;BME280;35268;42.642;23.308;2023-02-23T11:12:02;93768.00;;;14.51;38.17
49393;BME280;35268;42.642;23.308;2023-02-23T11:14:30;93767.72;;;14.69;38.41
49393;BME280;35268;42.642;23.308;2023-02-23T11:16:56;93762.66;;;14.79;38.23
49393;BME280;35268;42.642;23.308;2023-02-23T11:19:30;93752.03;;;14.83;37.91
49393;BME280;35268;42.642;23.308;2023-02-23T11:21:57;93760.66;;;15.04;37.92
49393;BME280;35268;42.642;23.308;2023-02-23T11:24:38;93750.22;;;15.31;37.04
49393;BME280;35268;42.642;23.308;2023-02-23T11:27:08;93756.53;;;15.55;37.43
49393;BME280;35268;42.642;23.308;2023-02-23T11:29:44;93749.66;;;15.86;36.98
49393;BME280;35268;42.642;23.308;2023-02-23T11:32:26;93746.31;;;16.08;35.87
49393;BME280;35268;42.642;23.308;2023-02-23T11:35:24;93748.34;;;16.31;35.05
49393;BME280;35268;42.642;23.308;2023-02-23T11:37:51;93746.88;;;16.53;34.89
49393;BME280;35268;42.642;23.308;2023-02-23T11:45:32;93731.66;;;16.80;33.11
49393;BME280;35268;42.642;23.308;2023-02-23T11:48:02;93738.25;;;17.02;33.50
49393;BME280;35268;42.642;23.308;2023-02-23T11:50:32;93733.97;;;17.20;33.16
49393;BME280;35268;42.642;23.308;2023-02-23T11:53:14;93735.00;;;17.35;32.84
49393;BME280;35268;42.642;23.308;2023-02-23T11:55:46;93736.50;;;17.56;32.56
49393;BME280;35268;42.642;23.308;2023-02-23T11:58:29;93731.84;;;17.53;31.83
49393;BME280;35268;42.642;23.308;2023-02-23T12:01:00;93725.78;;;17.59;31.62
49393;BME280;35268;42.642;23.308;2023-02-23T12:03:29;93725.00;;;17.59;32.10
49393;BME280;35268;42.642;23.308;2023-02-23T12:05:57;93729.38;;;17.67;32.28
49393;BME280;35268;42.642;23.308;2023-02-23T12:08:45;93729.59;;;17.81;32.45
49393;BME280;35268;42.642;23.308;2023-02-23T12:11:18;93725.97;;;17.97;31.48
49393;BME280;35268;42.642;23.308;2023-02-23T12:14:11;93720.78;;;18.11;31.69
49393;BME280;35268;42.642;23.308;2023-02-23T12:16:39;93729.41;;;18.20;31.53
49393;BME280;35268;42.642;23.308;2023-02-23T12:27:12;93717.63;;;18.62;30.72
49393;BME280;35268;42.642;23.308;2023-02-23T12:35:29;93705.16;;;18.51;30.48
49393;BME280;35268;42.642;23.308;2023-02-23T12:38:01;93708.63;;;18.51;30.97
49393;BME280;35268;42.642;23.308;2023-02-23T12:40:33;93702.81;;;18.49;31.05
49393;BME280;35268;42.642;23.308;2023-02-23T12:43:06;93711.00;;;18.56;31.18
49393;BME280;35268;42.642;23.308;2023-02-23T12:45:52;93710.72;;;18.65;31.09
49393;BME280;35268;42.642;23.308;2023-02-23T12:51:43;93714.28;;;18.73;30.22
49393;BME280;35268;42.642;23.308;2023-02-23T12:54:14;93706.91;;;18.70;30.50
49393;BME280;35268;42.642;23.308;2023-02-23T12:56:52;93711.19;;;18.71;30.50
49393;BME280;35268;42.642;23.308;2023-02-23T13:04:43;93697.06;;;18.84;30.88
49393;BME280;35268;42.642;23.308;2023-02-23T13:07:19;93701.69;;;18.84;30.82
49393;BME280;35268;42.642;23.308;2023-02-23T13:17:31;93705.72;;;18.97;31.02
49393;BME280;35268;42.642;23.308;2023-02-23T13:20:25;93698.03;;;18.99;30.93
49393;BME280;35268;42.642;23.308;2023-02-23T13:23:07;93698.75;;;18.96;31.31
49393;BME280;35268;42.642;23.308;2023-02-23T13:28:51;93691.88;;;19.02;31.54
49393;BME280;35268;42.642;23.308;2023-02-23T13:31:31;93696.19;;;19.07;31.48
49393;BME280;35268;42.642;23.308;2023-02-23T13:33:58;93698.13;;;19.10;31.14
49393;BME280;35268;42.642;23.308;2023-02-23T13:36:26;93689.19;;;19.06;31.25
49393;BME280;35268;42.642;23.308;2023-02-23T13:44:35;93691.72;;;18.88;31.43
49393;BME280;35268;42.642;23.308;2023-02-23T13:49:33;93698.69;;;18.89;31.61
49393;BME280;35268;42.642;23.308;2023-02-23T13:52:25;93698.63;;;18.86;31.40
49393;BME280;35268;42.642;23.308;2023-02-23T13:54:58;93704.09;;;18.89;31.61
49393;BME280;35268;42.642;23.308;2023-02-23T13:57:30;93699.41;;;18.86;31.64
49393;BME280;35268;42.642;23.308;2023-02-23T13:59:56;93697.88;;;18.85;31.31
49393;BME280;35268;42.642;23.308;2023-02-23T14:02:33;93702.03;;;18.79;31.45
49393;BME280;35268;42.642;23.308;2023-02-23T14:05:15;93700.81;;;18.76;31.54
49393;BME280;35268;42.642;23.308;2023-02-23T14:07:43;93692.28;;;18.71;31.72
49393;BME280;35268;42.642;23.308;2023-02-23T14:10:23;93702.63;;;18.65;32.08
49393;BME280;35268;42.642;23.308;2023-02-23T14:15:45;93704.91;;;18.63;32.18
49393;BME280;35268;42.642;23.308;2023-02-23T14:21:02;93695.88;;;18.52;31.80
49393;BME280;35268;42.642;23.308;2023-02-23T14:24:12;93696.94;;;18.43;32.12
49393;BME280;35268;42.642;23.308;2023-02-23T14:26:41;93697.28;;;18.38;31.71
49393;BME280;35268;42.642;23.308;2023-02-23T14:34:21;93682.38;;;18.18;32.33
49393;BME280;35268;42.642;23.308;2023-02-23T14:36:47;93690.41;;;18.14;32.32
49393;BME280;35268;42.642;23.308;2023-02-23T14:39:22;93684.97;;;18.11;31.57
49393;BME280;35268;42.642;23.308;2023-02-23T14:41:52;93688.34;;;18.04;31.87
49393;BME280;35268;42.642;23.308;2023-02-23T14:46:53;93680.53;;;17.95;32.32
49393;BME280;35268;42.642;23.308;2023-02-23T14:49:24;93683.88;;;17.89;33.35
49393;BME280;35268;42.642;23.308;2023-02-23T14:51:52;93680.94;;;17.74;33.65
49393;BME280;35268;42.642;23.308;2023-02-23T14:54:35;93668.41;;;17.59;34.12
49393;BME280;35268;42.642;23.308;2023-02-23T14:57:05;93678.59;;;17.46;34.56
49393;BME280;35268;42.642;23.308;2023-02-23T14:59:38;93682.13;;;17.27;35.29
49393;BME280;35268;42.642;23.308;2023-02-23T15:02:16;93685.72;;;17.12;35.58
49393;BME280;35268;42.642;23.308;2023-02-23T15:04:42;93691.56;;;16.94;35.66
49393;BME280;35268;42.642;23.308;2023-02-23T15:09:43;93703.25;;;16.43;36.50